createdAt,value
2023-01-10T00:02:19.128Z,7.60
2023-01-10T00:04:47.316Z,7.60
2023-01-10T00:07:15.222Z,7.60
2023-01-10T00:09:43.105Z,7.60
2023-01-10T00:12:28.330Z,7.60
2023-01-10T00:14:56.219Z,7.60
2023-01-10T00:17:25.427Z,7.60
2023-01-10T00:19:53.231Z,7.60
2023-01-10T00:22:25.114Z,7.60
2023-01-10T00:24:53.075Z,7.60
2023-01-10T00:27:23.366Z,7.60
2023-01-10T00:29:53.075Z,7.60
2023-01-10T00:32:21.697Z,7.60
2023-01-10T00:34:50.921Z,7.60
2023-01-10T00:37:18.855Z,7.60
2023-01-10T00:39:46.723Z,7.60
2023-01-10T00:42:31.869Z,7.50
2023-01-10T00:44:59.776Z,7.50
2023-01-10T00:47:27.632Z,7.50
2023-01-10T00:49:56.797Z,7.50
2023-01-10T00:52:24.688Z,7.50
2023-01-10T00:54:52.578Z,7.60
2023-01-10T00:57:20.414Z,7.60
2023-01-10T00:59:48.222Z,7.60
2023-01-10T01:02:16.224Z,7.60
2023-01-10T01:04:44.162Z,7.60
2023-01-10T01:07:13.462Z,7.60
2023-01-10T01:10:01.357Z,7.70
2023-01-10T01:12:29.242Z,7.70
2023-01-10T01:14:57.075Z,7.70
2023-01-10T01:17:24.943Z,7.60
2023-01-10T01:19:52.785Z,7.60
2023-01-10T01:22:22.335Z,7.60
2023-01-10T01:24:50.138Z,7.60
2023-01-10T01:27:18.043Z,7.60
2023-01-10T01:29:45.903Z,7.50
2023-01-10T01:32:13.746Z,7.50
2023-01-10T01:34:41.758Z,7.50
2023-01-10T01:37:09.650Z,7.50
2023-01-10T01:39:38.836Z,7.50
2023-01-10T01:42:07.242Z,7.50
2023-01-10T01:44:40.333Z,7.50
2023-01-10T01:47:12.618Z,7.50
2023-01-10T01:49:43.627Z,7.50
2023-01-10T01:52:19.295Z,7.50
2023-01-10T01:54:48.588Z,7.50
2023-01-10T01:57:19.648Z,7.50
2023-01-10T01:59:50.439Z,7.50
2023-01-10T02:02:23.034Z,7.50
2023-01-10T02:04:54.824Z,7.50
2023-01-10T02:07:24.352Z,7.40
2023-01-10T02:09:58.562Z,7.40
2023-01-10T02:12:30.057Z,7.40
2023-01-10T02:14:59.623Z,7.40
2023-01-10T02:17:27.508Z,7.40
2023-01-10T02:19:57.910Z,7.40
2023-01-10T02:23:07.790Z,7.40
2023-01-10T02:26:04.916Z,7.30
2023-01-10T02:29:17.732Z,7.30
2023-01-10T02:32:09.441Z,7.30
2023-01-10T02:34:47.675Z,7.30
2023-01-10T02:37:20.725Z,7.30
2023-01-10T02:39:57.214Z,7.40
2023-01-10T02:42:30.422Z,7.40
2023-01-10T02:45:05.874Z,7.40
2023-01-10T02:47:38.729Z,7.40
2023-01-10T02:50:29.455Z,7.40
2023-01-10T02:53:00.631Z,7.50
2023-01-10T02:55:40.158Z,7.50
2023-01-10T02:58:18.942Z,7.50
2023-01-10T03:00:51.500Z,7.50
2023-01-10T03:03:34.949Z,7.50
2023-01-10T03:06:14.292Z,7.50
2023-01-10T03:08:50.020Z,7.50
2023-01-10T03:11:38.053Z,7.50
2023-01-10T03:14:07.739Z,7.60
2023-01-10T03:16:38.620Z,7.60
2023-01-10T03:19:11.645Z,7.60
2023-01-10T03:21:41.736Z,7.60
2023-01-10T03:24:14.816Z,7.60
2023-01-10T03:26:50.160Z,7.60
2023-01-10T03:29:26.864Z,7.60
2023-01-10T03:31:58.256Z,7.60
2023-01-10T03:34:28.107Z,7.70
2023-01-10T03:37:04.382Z,7.70
2023-01-10T03:39:38.609Z,7.70
2023-01-10T03:42:11.929Z,7.70
2023-01-10T03:44:53.137Z,7.70
2023-01-10T03:47:28.008Z,7.60
2023-01-10T03:50:01.672Z,7.70
2023-01-10T03:52:31.133Z,7.70
2023-01-10T03:55:00.559Z,7.60
2023-01-10T03:57:28.534Z,7.60
2023-01-10T03:59:58.902Z,7.60
2023-01-10T04:02:29.642Z,7.60
2023-01-10T04:04:59.543Z,7.60
2023-01-10T04:07:27.944Z,7.60
2023-01-10T04:09:55.813Z,7.70
2023-01-10T04:12:23.648Z,7.60
2023-01-10T04:14:51.536Z,7.60
2023-01-10T04:17:19.630Z,7.60
2023-01-10T04:19:47.524Z,7.60
2023-01-10T04:22:16.962Z,7.70
2023-01-10T04:24:47.015Z,7.60
2023-01-10T04:27:14.910Z,7.60
2023-01-10T04:29:42.909Z,7.60
2023-01-10T04:32:10.757Z,7.70
2023-01-10T04:34:38.649Z,7.70
2023-01-10T04:37:06.695Z,7.60
2023-01-10T04:39:35.977Z,7.70
2023-01-10T04:42:03.883Z,7.70
2023-01-10T04:44:31.797Z,7.70
2023-01-10T04:46:59.618Z,7.70
2023-01-10T04:49:27.486Z,7.70
2023-01-10T04:51:55.388Z,7.70
2023-01-10T04:54:24.134Z,7.70
2023-01-10T04:56:53.409Z,7.70
2023-01-10T04:59:21.491Z,7.70
2023-01-10T05:01:49.694Z,7.70
2023-01-10T05:04:18.902Z,7.60
2023-01-10T05:06:49.416Z,7.70
2023-01-10T05:09:17.401Z,7.70
2023-01-10T05:11:45.290Z,7.70
2023-01-10T05:14:14.507Z,7.70
2023-01-10T05:16:42.418Z,7.70
2023-01-10T05:19:10.478Z,7.60
2023-01-10T05:21:38.331Z,7.70
2023-01-10T05:24:07.013Z,7.60
2023-01-10T05:26:34.821Z,7.60
2023-01-10T05:29:02.631Z,7.60
2023-01-10T05:31:32.004Z,7.60
2023-01-10T05:33:59.991Z,7.60
2023-01-10T05:36:27.811Z,7.60
2023-01-10T05:38:55.691Z,7.60
2023-01-10T05:41:23.911Z,7.60
2023-01-10T05:43:51.765Z,7.60
2023-01-10T05:46:19.599Z,7.60
2023-01-10T05:48:48.736Z,7.60
2023-01-10T05:51:16.609Z,7.60
2023-01-10T05:53:44.381Z,7.60
2023-01-10T05:56:12.313Z,7.60
2023-01-10T05:58:40.285Z,7.70
2023-01-10T06:01:08.474Z,7.70
2023-01-10T06:03:36.399Z,7.70
2023-01-10T06:06:05.943Z,7.70
2023-01-10T06:08:33.830Z,7.60
2023-01-10T06:11:01.674Z,7.70
2023-01-10T06:13:29.620Z,7.70
2023-01-10T06:15:57.716Z,7.70
2023-01-10T06:18:25.742Z,7.70
2023-01-10T06:20:53.559Z,7.70
2023-01-10T06:23:22.802Z,7.70
2023-01-10T06:25:50.618Z,7.70
2023-01-10T06:28:18.493Z,7.70
2023-01-10T06:30:46.390Z,7.70
2023-01-10T06:33:14.423Z,7.70
2023-01-10T06:35:42.271Z,7.70
2023-01-10T06:38:10.206Z,7.70
2023-01-10T06:40:39.498Z,7.70
2023-01-10T06:43:07.435Z,7.70
2023-01-10T06:45:35.355Z,7.70
2023-01-10T06:48:03.375Z,7.60
2023-01-10T06:50:31.825Z,7.60
2023-01-10T06:53:00.517Z,7.60
2023-01-10T06:55:29.130Z,7.60
2023-01-10T06:58:01.570Z,7.60
2023-01-10T07:00:31.198Z,7.60
2023-01-10T07:03:00.435Z,7.50
2023-01-10T07:05:28.988Z,7.50
2023-01-10T07:07:57.892Z,7.50
2023-01-10T07:10:25.820Z,7.50
2023-01-10T07:12:55.810Z,7.50
2023-01-10T07:15:25.435Z,7.50
2023-01-10T07:17:53.390Z,7.50
2023-01-10T07:20:21.344Z,7.50
2023-01-10T07:22:54.897Z,7.50
2023-01-10T07:25:22.961Z,7.50
2023-01-10T07:27:50.885Z,7.50
2023-01-10T07:30:19.203Z,7.50
2023-01-10T07:32:54.421Z,7.50
2023-01-10T07:35:22.668Z,7.50
2023-01-10T07:37:50.620Z,7.50
2023-01-10T07:40:19.248Z,7.50
2023-01-10T07:42:47.179Z,7.50
2023-01-10T07:45:15.320Z,7.50
2023-01-10T07:47:43.193Z,7.50
2023-01-10T07:50:12.905Z,7.50
2023-01-10T07:52:40.967Z,7.60
2023-01-10T07:55:09.781Z,7.60
2023-01-10T07:57:37.692Z,7.60
2023-01-10T08:00:06.169Z,7.60
2023-01-10T08:02:34.115Z,7.60
2023-01-10T08:05:02.020Z,7.60
2023-01-10T08:07:31.635Z,7.60
2023-01-10T08:09:59.762Z,7.60
2023-01-10T08:12:27.692Z,7.60
2023-01-10T08:14:55.584Z,7.70
2023-01-10T08:17:23.417Z,7.60
2023-01-10T08:19:51.289Z,7.60
2023-01-10T08:22:19.334Z,7.60
2023-01-10T08:24:48.598Z,7.60
2023-01-10T08:27:16.452Z,7.60
2023-01-10T08:29:44.325Z,7.60
2023-01-10T08:32:12.576Z,7.50
2023-01-10T08:34:40.717Z,7.50
2023-01-10T08:37:08.783Z,7.60
2023-01-10T08:39:39.153Z,7.60
2023-01-10T08:42:08.443Z,7.60
2023-01-10T08:44:36.587Z,7.60
2023-01-10T08:47:04.838Z,7.50
2023-01-10T08:49:32.704Z,7.50
2023-01-10T08:52:02.263Z,7.50
2023-01-10T08:54:30.258Z,7.50
2023-01-10T08:56:58.091Z,7.40
2023-01-10T08:59:27.276Z,7.40
2023-01-10T09:01:58.331Z,7.40
2023-01-10T09:04:27.055Z,7.30
2023-01-10T09:06:55.120Z,7.30
2023-01-10T09:09:23.436Z,7.20
2023-01-10T09:11:51.336Z,7.20
2023-01-10T09:14:19.236Z,7.10
2023-01-10T09:16:51.675Z,7.10
2023-01-10T09:19:19.675Z,7.10
2023-01-10T09:21:47.523Z,7.10
2023-01-10T09:24:15.426Z,7.10
2023-01-10T09:26:43.302Z,7.10
2023-01-10T09:29:11.192Z,7.10
2023-01-10T09:31:39.094Z,7.10
2023-01-10T09:34:08.624Z,7.10
2023-01-10T09:36:36.482Z,7.10
2023-01-10T09:39:04.412Z,7.10
2023-01-10T09:41:55.174Z,7.10
2023-01-10T09:44:31.743Z,7.10
2023-01-10T09:47:21.771Z,7.10
2023-01-10T09:50:04.141Z,7.10
2023-01-10T09:52:34.714Z,7.10
2023-01-10T09:55:20.282Z,7.10
2023-01-10T09:57:48.684Z,7.10
2023-01-10T10:00:21.073Z,7.10
2023-01-10T10:02:52.513Z,7.20
2023-01-10T10:05:24.566Z,7.20
2023-01-10T10:07:56.612Z,7.20
2023-01-10T10:10:27.395Z,7.10
2023-01-10T10:13:11.648Z,7.10
2023-01-10T10:15:50.280Z,7.10
2023-01-10T10:18:32.966Z,7.20
2023-01-10T10:21:07.275Z,7.10
2023-01-10T10:23:53.373Z,7.20
2023-01-10T10:26:29.237Z,7.20
2023-01-10T10:29:08.548Z,7.10
2023-01-10T10:31:59.759Z,7.20
2023-01-10T10:34:36.678Z,7.20
2023-01-10T10:37:11.585Z,7.10
2023-01-10T10:39:57.351Z,7.10
2023-01-10T10:42:31.214Z,7.10
2023-01-10T10:45:02.958Z,7.20
2023-01-10T10:47:34.958Z,7.20
2023-01-10T10:50:12.367Z,7.20
2023-01-10T10:52:42.232Z,7.10
2023-01-10T10:55:15.525Z,7.10
2023-01-10T10:57:59.013Z,7.10
2023-01-10T11:00:29.817Z,7.10
2023-01-10T11:03:04.436Z,7.10
2023-01-10T11:05:36.902Z,7.10
2023-01-10T11:08:10.663Z,7.10
2023-01-10T11:10:40.095Z,7.10
2023-01-10T11:13:17.575Z,7.10
2023-01-10T11:15:47.512Z,7.10
2023-01-10T11:18:17.299Z,7.10
2023-01-10T11:20:50.674Z,7.00
2023-01-10T11:23:35.614Z,7.00
2023-01-10T11:26:04.419Z,7.00
2023-01-10T11:28:34.611Z,7.00
2023-01-10T11:31:04.046Z,7.00
2023-01-10T11:33:35.435Z,6.90
2023-01-10T11:36:05.681Z,7.00
2023-01-10T11:38:35.569Z,6.90
2023-01-10T11:41:05.870Z,7.00
2023-01-10T11:43:35.558Z,7.00
2023-01-10T11:46:05.360Z,7.00
2023-01-10T11:49:04.204Z,7.00
2023-01-10T11:51:37.411Z,7.00
2023-01-10T11:54:08.457Z,7.00
2023-01-10T11:56:39.915Z,6.90
2023-01-10T11:59:14.643Z,6.90
2023-01-10T12:01:45.150Z,6.90
2023-01-10T12:04:16.616Z,7.00
2023-01-10T12:06:47.525Z,7.00
2023-01-10T12:09:40.839Z,7.00
2023-01-10T12:12:18.064Z,6.90
2023-01-10T12:14:46.472Z,6.90
2023-01-10T12:17:24.117Z,6.90
2023-01-10T12:19:53.953Z,6.90
2023-01-10T12:22:27.917Z,6.90
2023-01-10T12:24:59.622Z,6.90
2023-01-10T12:27:30.902Z,6.90
2023-01-10T12:30:06.468Z,6.90
2023-01-10T12:32:40.404Z,6.90
2023-01-10T12:35:15.140Z,7.00
2023-01-10T12:37:49.463Z,6.90
2023-01-10T12:40:26.467Z,7.00
2023-01-10T12:43:17.405Z,7.00
2023-01-10T12:45:51.767Z,7.00
2023-01-10T12:48:26.827Z,7.00
2023-01-10T12:50:58.751Z,7.10
2023-01-10T12:53:32.263Z,7.10
2023-01-10T12:56:05.908Z,7.10
2023-01-10T12:58:42.929Z,7.10
2023-01-10T13:01:15.051Z,7.10
2023-01-10T13:03:44.499Z,7.10
2023-01-10T13:06:22.954Z,7.10
2023-01-10T13:08:52.044Z,7.10
2023-01-10T13:11:24.525Z,7.00
2023-01-10T13:13:57.943Z,7.00
2023-01-10T13:16:34.100Z,7.00
2023-01-10T13:19:05.830Z,7.00
2023-01-10T13:21:35.358Z,7.00
2023-01-10T13:24:05.365Z,7.10
2023-01-10T13:26:53.349Z,7.10
2023-01-10T13:29:23.130Z,7.10
2023-01-10T13:31:57.290Z,7.10
2023-01-10T13:34:28.690Z,7.10
2023-01-10T13:36:59.349Z,7.10
2023-01-10T13:39:33.018Z,7.10
2023-01-10T13:43:05.180Z,7.20
2023-01-10T13:45:36.519Z,7.20
2023-01-10T13:48:20.322Z,7.20
2023-01-10T13:51:14.901Z,7.20
2023-01-10T13:53:55.196Z,7.30
2023-01-10T13:56:40.872Z,7.30
2023-01-10T13:59:33.326Z,7.30
2023-01-10T14:02:20.181Z,7.30
2023-01-10T14:04:51.988Z,7.30
2023-01-10T14:07:26.408Z,7.30
2023-01-10T14:10:04.528Z,7.30
2023-01-10T14:12:36.022Z,7.40
2023-01-10T14:15:09.121Z,7.30
2023-01-10T14:17:39.159Z,7.40
2023-01-10T14:20:20.942Z,7.40
2023-01-10T14:23:02.202Z,7.40
2023-01-10T14:25:32.276Z,7.30
2023-01-10T14:28:01.428Z,7.30
2023-01-10T14:30:33.758Z,7.30
2023-01-10T14:33:05.782Z,7.30
2023-01-10T14:35:38.108Z,7.30
2023-01-10T14:38:09.397Z,7.30
2023-01-10T14:40:42.165Z,7.20
2023-01-10T14:43:16.022Z,7.20
2023-01-10T14:45:52.869Z,7.20
2023-01-10T14:48:27.262Z,7.20
2023-01-10T14:51:07.441Z,7.10
2023-01-10T14:53:35.398Z,7.10
2023-01-10T14:56:03.437Z,7.10
2023-01-10T14:58:31.402Z,7.10
2023-01-10T15:01:00.731Z,7.00
2023-01-10T15:03:28.844Z,7.00
2023-01-10T15:05:58.804Z,7.00
2023-01-10T15:08:29.003Z,6.90
2023-01-10T15:11:01.747Z,6.90
2023-01-10T15:13:32.421Z,6.90
2023-01-10T15:16:05.788Z,6.80
2023-01-10T15:18:39.370Z,6.80
2023-01-10T15:21:08.531Z,6.80
2023-01-10T15:23:38.182Z,6.70
2023-01-10T15:26:09.531Z,6.70
2023-01-10T15:28:38.063Z,6.70
2023-01-10T15:31:11.310Z,6.70
2023-01-10T15:33:44.615Z,6.70
2023-01-10T15:36:16.669Z,6.70
2023-01-10T15:38:46.499Z,6.70
2023-01-10T15:41:20.220Z,6.70
2023-01-10T15:43:50.058Z,6.70
2023-01-10T15:46:24.152Z,6.70
2023-01-10T15:48:58.898Z,6.70
2023-01-10T15:51:29.624Z,6.70
2023-01-10T15:54:03.395Z,6.60
2023-01-10T15:56:35.788Z,6.60
2023-01-10T15:59:05.458Z,6.60
2023-01-10T16:01:35.874Z,6.50
2023-01-10T16:04:05.669Z,6.50
2023-01-10T16:06:35.395Z,6.50
2023-01-10T16:09:06.903Z,6.50
2023-01-10T16:11:57.707Z,6.50
2023-01-10T16:14:25.844Z,6.50
2023-01-10T16:16:55.150Z,6.50
2023-01-10T16:19:23.154Z,6.50
2023-01-10T16:21:57.848Z,6.50
2023-01-10T16:24:27.816Z,6.50
2023-01-10T16:26:57.965Z,6.50
2023-01-10T16:29:25.950Z,6.50
2023-01-10T16:31:55.428Z,6.50
2023-01-10T16:34:24.320Z,6.50
2023-01-10T16:36:52.348Z,6.50
2023-01-10T16:39:21.782Z,6.40
2023-01-10T16:42:07.875Z,6.40
2023-01-10T16:44:36.202Z,6.40
2023-01-10T16:47:07.267Z,6.50
2023-01-10T16:49:35.408Z,6.50
2023-01-10T16:52:03.747Z,6.50
2023-01-10T16:54:35.411Z,6.50
2023-01-10T16:57:03.459Z,6.50
2023-01-10T16:59:31.558Z,6.40
2023-01-10T17:01:59.870Z,6.40
2023-01-10T17:04:32.719Z,6.50
2023-01-10T17:07:00.708Z,6.50
2023-01-10T17:09:30.257Z,6.50
2023-01-10T17:12:02.747Z,6.50
2023-01-10T17:14:31.275Z,6.50
2023-01-10T17:16:59.320Z,6.40
2023-01-10T17:19:27.270Z,6.40
2023-01-10T17:21:56.641Z,6.40
2023-01-10T17:24:24.555Z,6.40
2023-01-10T17:26:52.510Z,6.40
2023-01-10T17:29:22.466Z,6.40
2023-01-10T17:31:51.258Z,6.40
2023-01-10T17:34:19.439Z,6.40
2023-01-10T17:36:47.405Z,6.50
2023-01-10T17:39:16.694Z,6.50
2023-01-10T17:41:44.803Z,6.50
2023-01-10T17:44:12.879Z,6.50
2023-01-10T17:46:40.923Z,6.50
2023-01-10T17:49:08.785Z,6.50
2023-01-10T17:51:36.727Z,6.50
2023-01-10T17:54:05.002Z,6.50
2023-01-10T17:56:34.366Z,6.50
2023-01-10T17:59:02.271Z,6.50
2023-01-10T18:01:30.289Z,6.60
2023-01-10T18:03:58.168Z,6.60
2023-01-10T18:06:26.355Z,6.60
2023-01-10T18:08:54.743Z,6.60
2023-01-10T18:11:22.833Z,6.70
2023-01-10T18:13:52.095Z,6.70
2023-01-10T18:16:20.099Z,6.70
2023-01-10T18:18:48.105Z,6.70
2023-01-10T18:21:17.325Z,6.70
2023-01-10T18:23:46.729Z,6.80
2023-01-10T18:26:14.871Z,6.80
2023-01-10T18:28:44.774Z,6.80
2023-01-10T18:31:16.946Z,6.90
2023-01-10T18:33:45.745Z,6.90
2023-01-10T18:36:16.880Z,6.90
2023-01-10T18:38:45.824Z,6.90
2023-01-10T18:41:14.003Z,6.90
2023-01-10T18:43:42.284Z,6.90
2023-01-10T18:46:14.099Z,7.00
2023-01-10T18:48:42.238Z,7.00
2023-01-10T18:51:12.594Z,7.00
2023-01-10T18:53:41.165Z,7.00
2023-01-10T18:56:10.391Z,7.00
2023-01-10T18:58:40.726Z,7.10
2023-01-10T19:01:10.725Z,7.10
2023-01-10T19:03:40.191Z,7.10
2023-01-10T19:06:10.963Z,7.20
2023-01-10T19:08:41.805Z,7.20
2023-01-10T19:11:14.526Z,7.20
2023-01-10T19:13:43.982Z,7.30
2023-01-10T19:16:14.480Z,7.30
2023-01-10T19:18:44.859Z,7.40
2023-01-10T19:21:15.829Z,7.40
2023-01-10T19:23:44.083Z,7.50
2023-01-10T19:26:12.160Z,7.50
2023-01-10T19:28:40.181Z,7.60
2023-01-10T19:31:08.361Z,7.60
2023-01-10T19:33:38.324Z,7.70
2023-01-10T19:36:08.904Z,7.70
2023-01-10T19:38:36.854Z,7.80
2023-01-10T19:41:05.014Z,7.80
2023-01-10T19:43:33.988Z,7.80
2023-01-10T19:46:05.716Z,7.90
2023-01-10T19:48:35.860Z,7.90
2023-01-10T19:51:08.147Z,7.90
2023-01-10T19:53:37.080Z,7.90
2023-01-10T19:56:09.521Z,8.00
2023-01-10T19:58:39.123Z,8.00
2023-01-10T20:01:11.380Z,8.00
2023-01-10T20:03:42.045Z,8.00
2023-01-10T20:06:13.996Z,8.10
2023-01-10T20:08:42.129Z,8.10
2023-01-10T20:11:10.589Z,8.10
2023-01-10T20:13:44.438Z,8.20
2023-01-10T20:16:13.597Z,8.20
2023-01-10T20:18:41.785Z,8.20
2023-01-10T20:21:13.101Z,8.20
2023-01-10T20:23:42.515Z,8.30
2023-01-10T20:26:13.871Z,8.30
2023-01-10T20:28:43.097Z,8.30
2023-01-10T20:31:14.292Z,8.30
2023-01-10T20:33:42.180Z,8.40
2023-01-10T20:36:14.091Z,8.40
2023-01-10T20:38:42.175Z,8.50
2023-01-10T20:41:13.436Z,8.40
2023-01-10T20:43:41.373Z,8.50
2023-01-10T20:46:11.797Z,8.50
2023-01-10T20:48:40.767Z,8.60
2023-01-10T20:51:11.868Z,8.60
2023-01-10T20:53:41.206Z,8.60
2023-01-10T20:56:12.097Z,8.70
2023-01-10T20:58:40.747Z,8.70
2023-01-10T21:01:09.983Z,8.70
2023-01-10T21:03:38.130Z,8.70
2023-01-10T21:06:06.404Z,8.70
2023-01-10T21:08:34.376Z,8.70
2023-01-10T21:11:03.622Z,8.70
2023-01-10T21:13:31.822Z,8.70
2023-01-10T21:15:59.941Z,8.70
2023-01-10T21:18:33.630Z,8.70
2023-01-10T21:21:01.763Z,8.70
2023-01-10T21:23:30.341Z,8.80
2023-01-10T21:26:04.221Z,8.80
2023-01-10T21:28:34.465Z,8.80
2023-01-10T21:31:02.420Z,8.80
2023-01-10T21:33:30.360Z,8.80
2023-01-10T21:35:58.836Z,8.80
2023-01-10T21:38:28.359Z,8.80
2023-01-10T21:40:56.989Z,8.90
2023-01-10T21:43:26.266Z,8.90
2023-01-10T21:45:59.731Z,8.90
2023-01-10T21:48:27.699Z,8.90
2023-01-10T21:50:55.604Z,8.90
2023-01-10T21:53:23.715Z,9.00
2023-01-10T21:55:51.529Z,9.00
2023-01-10T21:58:19.584Z,9.00
2023-01-10T22:00:48.844Z,9.00
2023-01-10T22:03:16.818Z,9.10
2023-01-10T22:05:44.720Z,9.10
2023-01-10T22:08:12.588Z,9.10
2023-01-10T22:10:40.488Z,9.10
2023-01-10T22:13:08.394Z,9.20
2023-01-10T22:15:37.891Z,9.20
2023-01-10T22:18:07.330Z,9.20
2023-01-10T22:20:35.276Z,9.20
2023-01-10T22:23:03.361Z,9.20
2023-01-10T22:25:31.361Z,9.20
2023-01-10T22:27:59.273Z,9.20
2023-01-10T22:30:27.201Z,9.20
2023-01-10T22:32:57.200Z,9.20
2023-01-10T22:35:27.208Z,9.30
2023-01-10T22:37:56.691Z,9.30
2023-01-10T22:40:24.975Z,9.30
2023-01-10T22:42:53.639Z,9.40
2023-01-10T22:45:21.602Z,9.40
2023-01-10T22:47:50.297Z,9.40
2023-01-10T22:50:18.783Z,9.40
2023-01-10T22:52:50.522Z,9.50
2023-01-10T22:55:19.357Z,9.50
2023-01-10T22:57:47.805Z,9.50
2023-01-10T23:00:16.678Z,9.50
2023-01-10T23:02:44.631Z,9.60
2023-01-10T23:05:12.575Z,9.60
2023-01-10T23:07:40.564Z,9.60
2023-01-10T23:10:28.389Z,9.70
2023-01-10T23:12:57.639Z,9.70
2023-01-10T23:15:25.590Z,9.70
2023-01-10T23:17:53.463Z,9.70
2023-01-10T23:20:21.615Z,9.70
2023-01-10T23:22:49.520Z,9.80
2023-01-10T23:25:18.903Z,9.80
2023-01-10T23:27:46.813Z,9.80
2023-01-10T23:30:15.027Z,9.80
2023-01-10T23:32:42.842Z,9.80
2023-01-10T23:35:10.983Z,9.90
2023-01-10T23:37:38.856Z,9.90
2023-01-10T23:40:07.814Z,9.90
2023-01-10T23:42:36.984Z,9.90
2023-01-10T23:45:05.504Z,10.00
2023-01-10T23:47:33.323Z,10.00
2023-01-10T23:50:02.091Z,10.00
2023-01-10T23:52:29.977Z,10.00
2023-01-10T23:54:57.893Z,10.00
2023-01-10T23:57:25.751Z,10.00
2023-01-10T23:59:54.921Z,10.10
